OIZB

Details ICAO OIZB
Name ZABOL
Region Iran
Timezone Asia/Tehran (UTC+3.5)
Plans Departing 2
Arriving 3
Stats Elevation 1,628 ft / 496 m (AMSL)
Location 31.097150° 61.544107°
Runways 1
Magnetic Variation 2.760° E
Sunrise 2017-12-17 02:47:14 UTC / 2017-12-17 06:17:14 Local
Sunset 2017-12-17 12:55:13 UTC / 2017-12-17 16:25:13 Local
Advertisement - Login to hide

Runways

ID Width Length Bearing (true) Bearing (mag) Surface Threshold Offset Overrun Length
16 148 ft / 45 m 9,876 ft / 3,010 m 166.86° 164.10° Asphalt 0 ft / 0 m 820 ft / 250 m
34 148 ft / 45 m 9,876 ft / 3,010 m 346.86° 344.10° Asphalt 0 ft / 0 m 820 ft / 250 m

Map

Weather


0- 5 10 15 20 25 30 35+ Temperature / ° C

Clouds and Precipitation
Forecast for 2017-12-17 06:00 UTC. Updated an hour ago

Ground ~20,000 ft ~40,000 ft Winds

METAR

OIZB 170200Z 34004KT CAVOK 01/M08 Q1025

TAF

Not found

Frequencies

Tower 121.70 MHz INFO
Tower 118.35 MHz INFO
Warning: Do not use this data for real-world aviation or navigation. No guarantee of current accuracy is given.